Time;durP1;ratioP1;P1;durP2;ratioP2;P2;SDS_P1;SDS_P2;PMS_P1;PMS_P2;Temp;Humidity;BMP_temperature;BMP_pressure;BME280_temperature;BME280_humidity;BME280_pressure;Samples;Min_cycle;Max_cycle;Signal;HPM_P1;HPM_P2
2022/01/31 00:02:05;;;;;;;38.33;22.70;;;4.40;73.80;;;;;;4995847;28;20027;-81
2022/01/31 00:04:31;;;;;;;48.90;27.97;;;4.50;73.20;;;;;;4995693;28;20502;-78
2022/01/31 00:06:57;;;;;;;42.47;25.97;;;4.50;71.40;;;;;;4995985;28;20109;-78
2022/01/31 00:09:24;;;;;;;46.63;28.47;;;4.30;71.40;;;;;;4996023;28;20042;-78
2022/01/31 00:11:58;;;;;;;45.70;29.23;;;4.30;71.40;;;;;;4996029;28;20034;-79
2022/01/31 00:16:55;;;;;;;43.37;28.07;;;4.20;71.50;;;;;;4996025;28;20027;-79
2022/01/31 00:19:21;;;;;;;44.33;29.00;;;4.10;71.60;;;;;;4995601;28;20077;-79
2022/01/31 00:21:46;;;;;;;51.30;28.13;;;4.10;71.90;;;;;;4977959;28;20026;-78
2022/01/31 00:24:13;;;;;;;46.60;28.63;;;4.00;72.50;;;;;;4995542;28;20032;-79
2022/01/31 00:26:38;;;;;;;47.43;28.17;;;4.00;71.90;;;;;;4978262;28;20030;-79
2022/01/31 00:29:04;;;;;;;48.87;30.90;;;4.00;71.80;;;;;;4995312;28;20353;-79
2022/01/31 00:31:31;;;;;;;44.20;28.43;;;4.00;71.70;;;;;;4977652;28;20081;-79
2022/01/31 00:33:57;;;;;;;47.37;27.50;;;3.90;71.60;;;;;;4995261;28;20050;-79
2022/01/31 00:36:23;;;;;;;40.13;25.13;;;3.90;71.80;;;;;;4995353;28;20077;-79
2022/01/31 00:38:48;;;;;;;43.60;25.57;;;3.90;72.00;;;;;;4995160;28;20027;-79
2022/01/31 00:41:14;;;;;;;37.87;22.77;;;3.90;72.10;;;;;;4995398;28;20027;-79
2022/01/31 00:43:41;;;;;;;31.40;20.27;;;3.80;72.10;;;;;;4995149;28;20399;-77
2022/01/31 00:46:12;;;;;;;23.60;15.50;;;3.90;72.30;;;;;;4994779;28;20421;-76
2022/01/31 00:48:44;;;;;;;29.50;16.20;;;3.90;72.30;;;;;;4995074;28;20022;-79
2022/01/31 00:51:11;;;;;;;23.88;14.52;;;4.00;72.00;;;;;;4995140;28;20023;-79
2022/01/31 00:53:37;;;;;;;24.90;14.23;;;4.00;71.50;;;;;;4995023;28;20380;-79
2022/01/31 00:56:03;;;;;;;35.73;22.23;;;4.00;71.20;;;;;;4995052;28;20027;-80
2022/01/31 00:58:29;;;;;;;37.30;20.83;;;4.10;70.80;;;;;;4994535;28;20077;-80
2022/01/31 01:00:55;;;;;;;35.63;21.47;;;4.00;70.70;;;;;;4994877;28;20030;-79
2022/01/31 01:03:21;;;;;;;36.17;21.17;;;4.00;70.90;;;;;;4994824;28;20027;-79
2022/01/31 01:05:46;;;;;;;36.13;22.00;;;3.90;71.00;;;;;;4994627;28;20466;-79
2022/01/31 01:08:12;;;;;;;33.57;20.70;;;4.00;70.90;;;;;;4994311;28;20026;-79
2022/01/31 01:10:38;;;;;;;39.87;23.13;;;3.90;70.90;;;;;;4994461;28;20030;-79
2022/01/31 01:13:04;;;;;;;36.63;22.90;;;3.90;71.10;;;;;;4994419;28;20040;-79
2022/01/31 01:15:30;;;;;;;42.97;23.37;;;3.90;70.80;;;;;;4994568;28;20034;-78
2022/01/31 01:17:56;;;;;;;41.43;23.27;;;3.90;70.80;;;;;;4994541;28;20031;-79
2022/01/31 01:20:21;;;;;;;38.17;23.57;;;3.90;70.70;;;;;;4994431;28;20406;-80
2022/01/31 01:22:47;;;;;;;38.23;22.93;;;3.80;70.60;;;;;;4994643;28;20022;-79
2022/01/31 01:25:15;;;;;;;41.03;23.93;;;3.70;70.70;;;;;;4994279;28;20030;-79
2022/01/31 01:27:43;;;;;;;40.60;23.90;;;3.70;70.90;;;;;;4994261;28;20133;-80
2022/01/31 01:30:11;;;;;;;34.33;22.73;;;3.60;71.00;;;;;;4994453;28;20471;-78
2022/01/31 01:32:46;;;;;;;38.10;23.90;;;3.50;71.30;;;;;;4993764;28;20038;-79
2022/01/31 01:35:12;;;;;;;36.17;24.30;;;3.50;71.50;;;;;;4994276;28;20025;-79
2022/01/31 01:37:38;;;;;;;36.10;23.20;;;3.40;71.90;;;;;;4976670;28;20394;-79
2022/01/31 01:40:05;;;;;;;37.67;23.67;;;3.40;72.20;;;;;;4994038;28;20486;-79
2022/01/31 01:42:31;;;;;;;35.43;22.47;;;3.40;72.40;;;;;;4994169;28;20054;-78
2022/01/31 01:44:57;;;;;;;39.13;23.03;;;3.40;72.70;;;;;;4994150;28;20057;-79
2022/01/31 01:47:24;;;;;;;38.73;23.17;;;3.40;72.90;;;;;;4993899;28;20029;-79
2022/01/31 01:49:51;;;;;;;35.43;23.57;;;3.40;73.00;;;;;;4993936;28;20062;-79
2022/01/31 01:52:17;;;;;;;38.67;23.67;;;3.30;73.20;;;;;;4993749;28;20046;-79
2022/01/31 01:54:45;;;;;;;34.17;21.87;;;3.30;73.50;;;;;;4993822;28;20097;-79
2022/01/31 01:57:11;;;;;;;39.60;23.63;;;3.40;73.70;;;;;;4993721;28;20085;-79
2022/01/31 01:59:38;;;;;;;32.07;20.20;;;3.40;73.50;;;;;;4990676;28;20022;-78
2022/01/31 02:02:05;;;;;;;36.77;22.07;;;3.40;73.80;;;;;;4991358;28;20022;-79
2022/01/31 02:04:31;;;;;;;37.70;23.37;;;3.30;73.90;;;;;;4991712;28;20026;-78
2022/01/31 02:06:57;;;;;;;34.53;21.53;;;3.40;73.90;;;;;;4976250;28;20062;-79
2022/01/31 02:09:25;;;;;;;31.33;20.97;;;3.30;73.90;;;;;;4993517;28;20387;-78
2022/01/31 02:11:54;;;;;;;34.53;21.50;;;3.30;73.90;;;;;;4993505;28;20116;-79
2022/01/31 02:14:23;;;;;;;39.47;21.57;;;3.30;73.90;;;;;;4993392;28;20026;-80
2022/01/31 02:16:50;;;;;;;36.93;23.20;;;3.30;73.10;;;;;;4993692;28;20029;-79
2022/01/31 02:19:21;;;;;;;38.67;22.03;;;3.30;73.30;;;;;;4993659;28;20451;-78
2022/01/31 02:21:51;;;;;;;33.17;20.97;;;3.20;73.60;;;;;;4993433;28;20065;-79
2022/01/31 02:24:17;;;;;;;34.03;22.00;;;3.20;73.70;;;;;;4993748;28;20747;-79
2022/01/31 02:26:43;;;;;;;33.00;21.57;;;3.20;74.20;;;;;;4993169;28;20026;-79
2022/01/31 02:29:11;;;;;;;38.17;23.03;;;3.30;74.30;;;;;;4993164;28;20034;-79
2022/01/31 02:31:42;;;;;;;37.07;22.00;;;3.20;73.80;;;;;;4993472;28;20495;-78
2022/01/31 02:34:07;;;;;;;34.70;21.97;;;3.20;73.50;;;;;;4993841;28;20375;-79
2022/01/31 02:36:34;;;;;;;38.47;22.07;;;3.20;73.30;;;;;;4975657;28;20026;-79
2022/01/31 02:39:00;;;;;;;42.57;24.30;;;3.10;73.30;;;;;;4976016;28;20038;-79
2022/01/31 02:41:27;;;;;;;38.53;22.50;;;3.10;74.00;;;;;;4993281;28;20031;-79
2022/01/31 02:43:54;;;;;;;36.50;22.80;;;3.00;74.30;;;;;;4994224;28;20479;-78
2022/01/31 02:46:23;;;;;;;38.33;22.97;;;3.00;74.50;;;;;;4997492;28;20037;-79
2022/01/31 02:48:51;;;;;;;39.63;21.90;;;3.00;74.90;;;;;;4997027;28;20031;-79
2022/01/31 02:51:21;;;;;;;35.77;22.07;;;3.00;74.80;;;;;;4996580;28;20511;-79
2022/01/31 02:53:48;;;;;;;36.53;22.17;;;3.00;74.80;;;;;;4997255;28;20033;-79
2022/01/31 02:56:13;;;;;;;32.43;21.20;;;3.00;74.70;;;;;;4997326;28;20073;-79
2022/01/31 02:58:39;;;;;;;39.53;21.90;;;2.90;75.30;;;;;;4996798;28;20026;-79
2022/01/31 03:01:05;;;;;;;34.47;22.10;;;2.90;75.80;;;;;;4997037;28;20026;-79
2022/01/31 03:03:31;;;;;;;37.73;23.27;;;2.90;76.00;;;;;;4997074;28;21047;-79
2022/01/31 03:05:58;;;;;;;36.97;20.23;;;2.90;76.20;;;;;;4997091;28;20026;-78
2022/01/31 03:08:24;;;;;;;41.27;19.70;;;2.90;76.70;;;;;;4996904;28;20034;-78
2022/01/31 03:10:51;;;;;;;34.00;21.17;;;3.00;76.80;;;;;;4979740;28;20041;-79
2022/01/31 03:13:16;;;;;;;30.10;19.47;;;3.00;76.80;;;;;;4996949;28;20452;-78
2022/01/31 03:15:42;;;;;;;31.17;19.10;;;3.00;76.60;;;;;;4997206;28;20109;-79
2022/01/31 03:18:08;;;;;;;30.43;20.10;;;3.00;76.50;;;;;;4996668;28;20097;-79
2022/01/31 03:20:34;;;;;;;29.53;18.73;;;3.10;76.90;;;;;;4997009;28;20031;-79
2022/01/31 03:23:00;;;;;;;27.23;15.40;;;3.10;77.00;;;;;;4979367;28;20108;-78
2022/01/31 03:25:26;;;;;;;23.50;14.20;;;3.10;76.80;;;;;;4996903;28;20022;-78
2022/01/31 03:27:52;;;;;;;21.67;13.67;;;3.20;76.80;;;;;;4996737;28;20109;-79
2022/01/31 03:30:22;;;;;;;20.97;11.67;;;3.20;77.30;;;;;;4996496;28;20113;-79
2022/01/31 03:32:48;;;;;;;20.70;12.13;;;3.20;76.40;;;;;;4996456;28;20041;-79
2022/01/31 03:35:15;;;;;;;12.77;8.50;;;3.30;76.80;;;;;;4996677;28;20023;-79
2022/01/31 03:37:40;;;;;;;11.13;7.33;;;3.30;75.90;;;;;;4996391;28;20475;-79
2022/01/31 03:40:07;;;;;;;11.10;6.90;;;3.40;75.60;;;;;;4978898;28;20027;-79
2022/01/31 03:42:35;;;;;;;14.70;6.83;;;3.40;75.30;;;;;;4996338;28;20101;-79
2022/01/31 03:45:01;;;;;;;12.03;6.23;;;3.40;75.10;;;;;;4996647;28;20539;-79
2022/01/31 03:47:27;;;;;;;12.60;7.07;;;3.50;74.80;;;;;;4996554;28;20030;-78
2022/01/31 03:49:52;;;;;;;20.93;12.77;;;3.50;74.30;;;;;;4996321;28;20034;-79
2022/01/31 03:52:18;;;;;;;24.37;13.57;;;3.50;74.00;;;;;;4996134;28;20038;-79
2022/01/31 03:54:44;;;;;;;28.97;16.83;;;3.50;73.50;;;;;;4996136;28;20526;-79
2022/01/31 03:57:10;;;;;;;28.17;17.53;;;3.60;73.00;;;;;;4995530;28;20042;-79
2022/01/31 03:59:36;;;;;;;28.13;17.17;;;3.60;72.80;;;;;;4978742;28;20036;-78
2022/01/31 04:02:05;;;;;;;27.90;16.80;;;3.60;73.30;;;;;;4996242;28;20113;-79
2022/01/31 04:04:30;;;;;;;28.70;17.13;;;3.60;73.70;;;;;;4996371;28;20114;-78
2022/01/31 04:06:56;;;;;;;27.43;18.30;;;3.50;74.10;;;;;;4996084;28;20503;-78
2022/01/31 04:09:22;;;;;;;26.33;16.43;;;3.40;74.50;;;;;;4995857;28;20089;-78
2022/01/31 04:11:47;;;;;;;24.83;17.07;;;3.40;74.80;;;;;;4995881;28;20441;-78
2022/01/31 04:14:13;;;;;;;26.80;17.57;;;3.40;75.20;;;;;;4995920;28;20023;-79
2022/01/31 04:16:39;;;;;;;32.53;17.80;;;3.30;75.30;;;;;;4995678;28;20034;-78
2022/01/31 04:19:05;;;;;;;28.43;17.33;;;3.30;75.50;;;;;;4995846;28;20379;-78
2022/01/31 04:21:31;;;;;;;29.10;16.80;;;3.30;75.70;;;;;;4995805;28;20022;-79
2022/01/31 04:23:58;;;;;;;30.50;19.40;;;3.30;75.80;;;;;;4995818;28;20099;-78
2022/01/31 04:26:31;;;;;;;26.63;17.00;;;3.30;76.00;;;;;;4995429;28;20026;-79
2022/01/31 04:29:05;;;;;;;27.13;16.57;;;3.30;76.10;;;;;;4977964;28;20395;-79
2022/01/31 04:31:44;;;;;;;28.37;16.93;;;3.30;76.20;;;;;;4995602;28;20030;-81
2022/01/31 04:34:10;;;;;;;27.83;17.47;;;3.30;76.20;;;;;;4995564;28;20026;-79
2022/01/31 04:36:36;;;;;;;25.37;15.50;;;3.30;76.20;;;;;;4995591;28;20030;-79
2022/01/31 04:39:02;;;;;;;24.10;15.53;;;3.30;76.40;;;;;;4995112;28;20022;-79
2022/01/31 04:41:28;;;;;;;22.70;14.27;;;3.30;76.20;;;;;;4995106;28;20510;-79
2022/01/31 04:43:58;;;;;;;21.97;13.13;;;3.30;76.30;;;;;;4995197;28;20030;-79
2022/01/31 04:46:24;;;;;;;21.50;12.50;;;3.40;76.20;;;;;;4995264;28;20553;-79
2022/01/31 04:48:49;;;;;;;15.33;10.17;;;3.40;76.00;;;;;;4995230;28;20030;-80
2022/01/31 04:51:15;;;;;;;15.67;9.13;;;3.40;75.70;;;;;;4995069;28;20117;-79
2022/01/31 04:53:41;;;;;;;15.07;9.70;;;3.40;75.50;;;;;;4995150;28;20034;-79
2022/01/31 04:56:07;;;;;;;16.27;9.90;;;3.50;75.40;;;;;;4994907;28;20030;-80
2022/01/31 04:58:33;;;;;;;15.97;9.70;;;3.50;75.40;;;;;;4994801;28;20084;-79
2022/01/31 05:00:59;;;;;;;15.83;9.77;;;3.50;75.30;;;;;;4994950;28;20034;-80
2022/01/31 05:03:26;;;;;;;14.50;9.33;;;3.50;75.30;;;;;;4994953;28;20054;-79
2022/01/31 05:05:52;;;;;;;17.77;11.00;;;3.50;75.20;;;;;;4994901;28;20157;-79
2022/01/31 05:08:20;;;;;;;15.83;9.87;;;3.60;75.20;;;;;;4993580;28;20539;-79
2022/01/31 05:10:49;;;;;;;17.40;10.73;;;3.60;75.00;;;;;;4994716;28;20026;-79
2022/01/31 05:13:16;;;;;;;18.43;10.43;;;3.60;74.90;;;;;;4994332;28;20467;-80
2022/01/31 05:15:42;;;;;;;19.97;10.13;;;3.60;75.00;;;;;;4994837;28;20038;-79
2022/01/31 05:18:08;;;;;;;16.13;9.63;;;3.60;75.20;;;;;;4994701;28;20027;-78
2022/01/31 05:20:34;;;;;;;17.53;10.00;;;3.60;75.10;;;;;;4994753;28;20030;-79
2022/01/31 05:23:00;;;;;;;18.37;10.13;;;3.60;75.20;;;;;;4994549;28;20084;-79
2022/01/31 05:25:25;;;;;;;19.57;11.47;;;3.60;75.30;;;;;;4994580;28;20049;-79
2022/01/31 05:27:51;;;;;;;21.13;12.87;;;3.60;75.20;;;;;;4994301;28;20023;-79
2022/01/31 05:30:17;;;;;;;19.90;12.40;;;3.60;75.20;;;;;;4994766;28;20056;-80
2022/01/31 05:32:45;;;;;;;17.67;10.53;;;3.50;75.10;;;;;;4994614;28;20039;-80
2022/01/31 05:35:11;;;;;;;19.07;11.93;;;3.50;75.00;;;;;;4994407;28;20049;-79
2022/01/31 05:37:37;;;;;;;17.83;11.30;;;3.50;75.30;;;;;;4994251;28;20482;-79
2022/01/31 05:40:04;;;;;;;23.23;11.30;;;3.50;75.40;;;;;;4994213;28;20022;-79
2022/01/31 05:42:30;;;;;;;21.10;12.47;;;3.50;75.40;;;;;;4994526;28;20093;-78
2022/01/31 05:44:56;;;;;;;23.20;14.43;;;3.50;75.20;;;;;;4994061;28;20385;-79
2022/01/31 05:47:21;;;;;;;23.63;14.97;;;3.50;75.00;;;;;;4993931;28;20019;-79
2022/01/31 05:49:47;;;;;;;22.10;15.07;;;3.50;74.90;;;;;;4994043;28;20458;-79
2022/01/31 05:52:13;;;;;;;24.97;15.03;;;3.40;75.10;;;;;;4994243;28;20558;-79
2022/01/31 05:54:39;;;;;;;26.23;14.70;;;3.40;75.20;;;;;;4994387;28;20022;-79
2022/01/31 05:57:07;;;;;;;23.07;13.67;;;3.40;75.10;;;;;;4994074;28;20475;-79
2022/01/31 05:59:33;;;;;;;24.53;15.23;;;3.40;75.10;;;;;;4993985;28;20015;-79
2022/01/31 06:02:01;;;;;;;27.30;16.27;;;3.40;75.30;;;;;;4994375;28;20033;-79
2022/01/31 06:04:27;;;;;;;25.30;14.43;;;3.40;75.40;;;;;;4993953;28;20034;-79
2022/01/31 06:06:53;;;;;;;27.03;16.23;;;3.30;75.30;;;;;;4993912;28;20033;-79
2022/01/31 06:09:18;;;;;;;26.70;15.90;;;3.30;75.30;;;;;;4993643;28;20050;-79
2022/01/31 06:11:47;;;;;;;31.23;15.23;;;3.30;75.30;;;;;;4993429;28;20038;-79
2022/01/31 06:14:12;;;;;;;33.37;15.17;;;3.30;75.40;;;;;;4993533;28;20486;-79
2022/01/31 06:16:38;;;;;;;29.37;16.03;;;3.30;75.20;;;;;;4993709;28;20026;-79
2022/01/31 06:19:04;;;;;;;31.17;16.00;;;3.30;75.10;;;;;;4993133;28;20042;-80
2022/01/31 06:21:29;;;;;;;26.70;16.43;;;3.20;75.10;;;;;;4993440;28;20033;-79
2022/01/31 06:23:55;;;;;;;28.80;17.23;;;3.20;75.10;;;;;;4976234;28;20154;-79
2022/01/31 06:26:22;;;;;;;29.97;17.87;;;3.20;75.40;;;;;;4993879;28;20036;-79
2022/01/31 06:28:48;;;;;;;31.90;18.30;;;3.20;75.50;;;;;;4993832;28;20030;-79
2022/01/31 06:31:15;;;;;;;28.40;17.53;;;3.10;75.70;;;;;;4993475;28;20038;-79
2022/01/31 06:33:41;;;;;;;28.27;16.53;;;3.10;76.00;;;;;;4993603;28;20042;-78
2022/01/31 06:36:06;;;;;;;39.23;19.73;;;3.10;76.10;;;;;;4993585;28;20356;-79
2022/01/31 06:38:35;;;;;;;29.90;17.60;;;3.10;76.20;;;;;;4993436;28;20154;-79
2022/01/31 06:41:01;;;;;;;33.77;18.40;;;3.10;76.20;;;;;;4993587;28;20022;-79
2022/01/31 06:43:27;;;;;;;29.80;17.97;;;3.10;76.20;;;;;;4993466;28;20031;-79
2022/01/31 06:45:53;;;;;;;31.53;17.67;;;3.10;76.40;;;;;;4993264;28;20035;-77
2022/01/31 06:48:18;;;;;;;31.97;17.30;;;3.10;76.80;;;;;;4993201;28;20026;-79
2022/01/31 06:50:44;;;;;;;30.67;17.53;;;3.10;77.00;;;;;;4993240;28;20038;-79
2022/01/31 06:53:12;;;;;;;35.70;20.27;;;3.10;77.10;;;;;;4993271;28;20038;-79
2022/01/31 06:55:38;;;;;;;44.93;21.87;;;3.10;77.20;;;;;;4993160;28;20023;-78
2022/01/31 06:58:04;;;;;;;42.47;23.10;;;3.10;77.30;;;;;;4993217;28;20125;-78
2022/01/31 07:00:31;;;;;;;36.57;19.97;;;3.10;77.30;;;;;;4993141;28;20022;-79
2022/01/31 07:03:00;;;;;;;32.93;19.10;;;3.10;77.50;;;;;;4992872;28;20042;-79
2022/01/31 07:05:26;;;;;;;39.93;21.33;;;3.10;77.40;;;;;;4975521;28;20448;-78
2022/01/31 07:07:52;;;;;;;38.23;21.93;;;3.10;77.50;;;;;;4993125;28;20030;-78
2022/01/31 07:10:17;;;;;;;43.47;22.00;;;3.20;77.50;;;;;;4993144;28;20118;-79
2022/01/31 07:12:51;;;;;;;40.37;21.80;;;3.20;77.60;;;;;;4992728;28;20046;-79
2022/01/31 07:15:17;;;;;;;37.53;20.73;;;3.20;77.60;;;;;;4976203;28;20073;-79
2022/01/31 07:17:44;;;;;;;44.03;21.43;;;3.20;77.70;;;;;;4980516;28;20034;-79
2022/01/31 07:20:19;;;;;;;61.43;21.30;;;3.20;77.70;;;;;;4978393;28;20387;-78
2022/01/31 07:22:50;;;;;;;55.43;20.73;;;3.20;77.60;;;;;;4978104;28;20069;-77
2022/01/31 07:25:34;;;;;;;41.60;19.87;;;3.30;77.60;;;;;;4985465;28;20042;-75
2022/01/31 07:28:01;;;;;;;47.60;21.43;;;3.30;77.90;;;;;;4991567;28;20443;-77
2022/01/31 07:30:27;;;;;;;43.27;19.77;;;3.30;78.10;;;;;;4992915;28;20034;-75
2022/01/31 07:32:53;;;;;;;32.33;19.20;;;3.30;78.10;;;;;;4996356;28;20030;-76
2022/01/31 07:35:19;;;;;;;35.70;18.33;;;3.30;77.80;;;;;;4969761;28;20074;-75
2022/01/31 07:37:44;;;;;;;34.77;16.53;;;3.30;78.20;;;;;;4987685;28;20033;-78
2022/01/31 07:40:11;;;;;;;30.37;15.83;;;3.40;78.10;;;;;;4995987;28;20398;-79
2022/01/31 07:42:36;;;;;;;28.07;14.80;;;3.40;78.30;;;;;;4995578;28;20161;-77
2022/01/31 07:45:02;;;;;;;21.63;12.13;;;3.40;78.20;;;;;;4995722;28;20498;-79
2022/01/31 07:47:29;;;;;;;20.07;10.77;;;3.40;78.00;;;;;;4994004;28;20030;-80
2022/01/31 07:49:55;;;;;;;17.73;9.90;;;3.50;78.00;;;;;;4992666;28;20046;-77
2022/01/31 07:52:20;;;;;;;21.87;11.10;;;3.50;77.60;;;;;;4993203;28;20045;-76
2022/01/31 07:54:46;;;;;;;21.00;11.13;;;3.50;77.40;;;;;;4996048;28;20029;-77
2022/01/31 07:57:12;;;;;;;23.40;12.00;;;3.60;77.40;;;;;;4996432;28;20081;-77
2022/01/31 07:59:38;;;;;;;21.83;12.27;;;3.60;77.60;;;;;;4995940;28;20057;-78
2022/01/31 08:02:04;;;;;;;24.57;12.23;;;3.70;77.40;;;;;;4995553;28;20419;-78
2022/01/31 08:04:29;;;;;;;23.73;11.47;;;3.70;77.10;;;;;;4996091;28;20022;-77
2022/01/31 08:06:55;;;;;;;20.63;10.40;;;3.80;77.00;;;;;;4995891;28;20550;-76
2022/01/31 08:09:20;;;;;;;21.23;10.97;;;3.80;76.80;;;;;;4995617;28;20418;-77
2022/01/31 08:11:46;;;;;;;20.20;10.00;;;3.80;76.60;;;;;;4995976;28;20468;-77
2022/01/31 08:14:16;;;;;;;24.70;10.13;;;3.90;76.40;;;;;;4994763;28;20026;-78
2022/01/31 08:16:42;;;;;;;24.60;12.43;;;3.90;76.30;;;;;;4994829;28;20026;-77
2022/01/31 08:19:08;;;;;;;33.20;13.33;;;3.90;76.20;;;;;;4994519;28;20106;-77
2022/01/31 08:21:35;;;;;;;29.93;14.70;;;4.00;76.30;;;;;;4995357;28;20057;-77
2022/01/31 08:24:01;;;;;;;31.63;18.03;;;4.00;76.30;;;;;;4995508;28;20057;-76
2022/01/31 08:26:27;;;;;;;30.27;16.57;;;4.00;77.00;;;;;;4995411;28;20100;-76
2022/01/31 08:28:59;;;;;;;34.67;16.47;;;4.10;77.20;;;;;;4995085;28;20038;-76
2022/01/31 08:31:34;;;;;;;33.73;17.10;;;4.00;77.50;;;;;;4995253;28;20022;-76
2022/01/31 08:34:06;;;;;;;30.50;16.47;;;4.00;77.60;;;;;;4995606;28;20276;-76
2022/01/31 08:36:34;;;;;;;32.05;18.40;;;4.00;77.60;;;;;;4995577;28;20060;-76
2022/01/31 08:39:19;;;;;;;32.20;18.10;;;4.00;77.80;;;;;;4995541;28;20344;-75
2022/01/31 08:41:48;;;;;;;34.70;19.33;;;4.10;77.60;;;;;;4977526;28;20052;-76
2022/01/31 08:44:17;;;;;;;35.00;19.93;;;4.00;77.60;;;;;;4977787;28;20537;-77
2022/01/31 08:46:44;;;;;;;35.07;19.73;;;4.00;77.90;;;;;;4995430;28;20022;-77
2022/01/31 08:49:10;;;;;;;32.97;19.70;;;4.00;78.00;;;;;;4995016;28;20037;-78
2022/01/31 08:51:37;;;;;;;31.77;19.97;;;4.00;78.20;;;;;;4995087;28;20034;-77
2022/01/31 08:54:06;;;;;;;28.60;18.33;;;4.00;78.50;;;;;;4995109;28;20027;-77
2022/01/31 08:56:38;;;;;;;33.13;16.87;;;4.00;78.30;;;;;;4994782;28;20154;-77
2022/01/31 08:59:05;;;;;;;;;;;4.00;78.80;;;;;;4994947;28;20030;-77
2022/01/31 09:01:32;;;;;;;23.73;12.30;;;4.00;78.50;;;;;;4976993;28;20283;-78
2022/01/31 09:04:01;;;;;;;25.50;13.87;;;4.10;78.20;;;;;;4994029;28;20022;-78
2022/01/31 09:06:29;;;;;;;26.30;13.70;;;4.10;78.10;;;;;;4994378;28;20085;-77
2022/01/31 09:08:57;;;;;;;23.47;11.47;;;4.10;77.90;;;;;;4994065;28;20042;-77
2022/01/31 09:11:24;;;;;;;22.10;11.27;;;4.20;77.80;;;;;;4977404;28;20032;-77
2022/01/31 09:13:50;;;;;;;21.00;11.43;;;4.10;77.40;;;;;;4994531;28;20024;-77
2022/01/31 09:16:16;;;;;;;35.50;19.73;;;4.20;77.10;;;;;;4994509;28;20014;-77
2022/01/31 09:18:42;;;;;;;32.37;18.53;;;4.20;77.80;;;;;;4993943;28;20073;-77
2022/01/31 09:21:08;;;;;;;37.80;19.57;;;4.20;77.80;;;;;;4994869;28;20113;-77
2022/01/31 09:23:33;;;;;;;31.40;16.93;;;4.20;77.80;;;;;;4994340;28;20019;-77
2022/01/31 09:25:59;;;;;;;35.50;18.17;;;4.20;78.10;;;;;;4994335;28;20106;-77
2022/01/31 09:28:26;;;;;;;30.43;17.93;;;4.30;78.20;;;;;;4994250;28;20030;-77
2022/01/31 09:30:53;;;;;;;35.17;20.20;;;4.20;78.20;;;;;;4994338;28;20057;-78
2022/01/31 09:33:19;;;;;;;35.13;20.87;;;4.20;78.50;;;;;;4994209;28;20074;-77
2022/01/31 09:35:45;;;;;;;37.60;21.80;;;4.30;78.70;;;;;;4994490;28;20054;-76
2022/01/31 09:38:13;;;;;;;39.77;21.63;;;4.20;79.10;;;;;;4994133;28;20053;-77
2022/01/31 09:40:40;;;;;;;30.20;20.90;;;4.20;79.30;;;;;;4994258;28;20018;-78
2022/01/31 09:51:16;;;;;;;39.30;22.90;;;4.30;79.60;;;;;;4993889;28;20489;-77
2022/01/31 09:53:50;;;;;;;34.43;19.03;;;4.20;79.50;;;;;;4993165;28;20027;-77
2022/01/31 09:56:21;;;;;;;41.03;22.30;;;4.30;79.70;;;;;;4992009;28;20030;-78
2022/01/31 09:58:49;;;;;;;36.00;21.43;;;4.30;79.80;;;;;;4991790;28;20101;-77
2022/01/31 10:01:52;;;;;;;33.60;21.43;;;4.30;79.60;;;;;;4994256;28;20109;-77
2022/01/31 10:04:20;;;;;;;36.85;23.65;;;4.30;79.60;;;;;;4982681;28;20038;-77
2022/01/31 10:06:55;;;;;;;37.97;24.20;;;4.20;79.80;;;;;;4994256;28;20057;-77
2022/01/31 10:09:32;;;;;;;38.07;24.63;;;4.30;80.20;;;;;;4993763;28;20065;-78
2022/01/31 10:12:09;;;;;;;38.93;23.73;;;4.30;80.70;;;;;;4993158;28;20070;-78
2022/01/31 10:17:28;;;;;;;25.67;16.13;;;4.30;80.50;;;;;;4993659;28;20065;-79
2022/01/31 10:19:55;;;;;;;;;;;4.30;80.60;;;;;;4993905;28;20364;-78
2022/01/31 10:22:26;;;;;;;26.23;14.03;;;4.30;80.50;;;;;;4993747;28;20009;-78
2022/01/31 10:24:55;;;;;;;28.23;15.03;;;4.30;80.20;;;;;;4993726;28;20030;-79
2022/01/31 10:27:28;;;;;;;32.63;14.97;;;4.30;80.70;;;;;;4993776;28;20015;-78
2022/01/31 10:30:04;;;;;;;29.33;16.80;;;4.30;80.60;;;;;;4976229;28;20439;-79
2022/01/31 10:32:34;;;;;;;36.53;18.90;;;4.30;81.00;;;;;;4993119;28;20057;-78
2022/01/31 10:35:06;;;;;;;38.10;21.50;;;4.40;81.20;;;;;;4993218;28;20101;-78
2022/01/31 10:37:35;;;;;;;31.53;20.80;;;4.30;81.60;;;;;;4993488;28;20058;-78
2022/01/31 10:45:52;;;;;;;46.13;25.07;;;4.40;81.90;;;;;;4993879;28;20061;-80
2022/01/31 10:56:23;;;;;;;43.47;27.87;;;4.30;84.20;;;;;;4993262;28;20027;-77
2022/01/31 10:59:06;;;;;;;41.07;25.73;;;4.30;84.80;;;;;;4975826;28;20117;-77
2022/01/31 11:01:32;;;;;;;39.60;23.58;;;4.30;85.10;;;;;;4991906;28;20065;-79
2022/01/31 11:04:06;;;;;;;37.87;26.50;;;4.30;85.60;;;;;;4991641;28;20046;-78
2022/01/31 11:06:32;;;;;;;39.27;23.30;;;4.30;86.00;;;;;;4994748;28;20033;-76
2022/01/31 11:09:04;;;;;;;32.47;20.13;;;4.30;85.50;;;;;;4997041;28;20411;-78
2022/01/31 11:11:32;;;;;;;25.90;15.67;;;4.30;85.30;;;;;;4996670;28;20541;-76
2022/01/31 11:13:59;;;;;;;25.97;14.47;;;4.30;85.30;;;;;;4996762;28;20323;-77
2022/01/31 11:16:24;;;;;;;23.80;15.17;;;4.40;84.90;;;;;;4971067;28;20509;-76
2022/01/31 11:18:50;;;;;;;23.67;16.00;;;4.40;84.70;;;;;;4976973;28;20177;-76
2022/01/31 11:21:19;;;;;;;34.43;19.17;;;4.40;84.80;;;;;;4977029;28;20382;-76
2022/01/31 11:23:50;;;;;;;32.40;20.73;;;4.40;84.30;;;;;;4977193;28;20109;-78
2022/01/31 11:26:18;;;;;;;35.77;19.87;;;4.50;83.80;;;;;;4959626;28;20026;-77
2022/01/31 11:28:47;;;;;;;30.07;18.80;;;4.50;84.50;;;;;;4977066;28;20082;-76
2022/01/31 11:31:13;;;;;;;29.07;19.97;;;4.50;85.10;;;;;;4975307;28;20037;-77
2022/01/31 11:33:39;;;;;;;35.00;20.53;;;4.50;84.60;;;;;;4974129;28;20383;-77
2022/01/31 11:36:05;;;;;;;31.93;19.63;;;4.50;84.70;;;;;;4974239;28;20035;-77
2022/01/31 11:38:32;;;;;;;29.10;19.87;;;4.50;85.10;;;;;;4975501;28;20029;-77
2022/01/31 11:41:03;;;;;;;31.80;20.03;;;4.40;87.10;;;;;;4956700;28;20078;-77
2022/01/31 11:43:31;;;;;;;33.77;18.77;;;4.50;87.90;;;;;;4974106;28;20034;-77
2022/01/31 11:46:00;;;;;;;28.10;17.70;;;4.50;87.90;;;;;;4976824;28;20070;-78
2022/01/31 11:48:29;;;;;;;31.27;19.50;;;4.40;86.20;;;;;;4976738;28;20392;-78
2022/01/31 11:51:00;;;;;;;33.43;20.67;;;4.50;86.40;;;;;;4976609;28;20551;-77
2022/01/31 11:53:35;;;;;;;36.10;23.07;;;4.50;85.90;;;;;;4976877;28;20058;-77
2022/01/31 11:56:22;;;;;;;31.83;20.67;;;4.50;86.70;;;;;;4976875;28;20034;-77
2022/01/31 11:58:53;;;;;;;35.30;22.47;;;4.40;86.60;;;;;;4976823;28;20027;-77
2022/01/31 12:01:21;;;;;;;35.87;22.80;;;4.40;86.60;;;;;;4976631;28;20483;-76
2022/01/31 12:03:52;;;;;;;40.33;22.80;;;4.50;86.10;;;;;;4976415;28;20030;-77
2022/01/31 12:06:25;;;;;;;36.27;24.20;;;4.50;86.30;;;;;;4976713;28;20050;-76
2022/01/31 12:08:53;;;;;;;38.17;24.67;;;4.50;87.30;;;;;;4976519;28;20447;-77
2022/01/31 12:11:28;;;;;;;33.90;23.87;;;4.50;87.20;;;;;;4976454;28;20046;-76
2022/01/31 12:13:59;;;;;;;38.70;23.87;;;4.50;86.60;;;;;;4976369;28;20035;-77
2022/01/31 12:19:30;;;;;;;38.53;23.97;;;4.60;87.90;;;;;;4976432;28;20491;-77
2022/01/31 12:22:04;;;;;;;37.63;24.53;;;4.60;86.50;;;;;;4976330;28;20105;-77
2022/01/31 12:24:30;;;;;;;32.77;20.87;;;4.60;86.00;;;;;;4976294;28;20039;-77
2022/01/31 12:26:59;;;;;;;29.57;18.63;;;4.60;86.60;;;;;;4976184;28;20023;-77
2022/01/31 12:29:29;;;;;;;22.93;16.13;;;4.60;86.40;;;;;;4975799;28;20051;-76
2022/01/31 12:31:56;;;;;;;24.23;16.63;;;4.70;85.90;;;;;;4975896;28;20085;-76
2022/01/31 12:34:22;;;;;;;29.47;16.90;;;4.70;86.30;;;;;;4975650;28;20034;-77
2022/01/31 12:36:56;;;;;;;29.57;16.23;;;4.70;85.90;;;;;;4975768;28;20041;-76
2022/01/31 12:39:42;;;;;;;26.03;16.63;;;4.70;86.30;;;;;;4958341;28;20022;-77
2022/01/31 12:42:51;;;;;;;27.07;15.17;;;4.70;86.50;;;;;;4976011;28;20027;-76
2022/01/31 12:45:21;;;;;;;25.83;15.33;;;4.80;87.20;;;;;;4958653;28;20467;-76
2022/01/31 12:48:22;;;;;;;23.83;15.30;;;4.80;87.20;;;;;;4975876;28;20031;-76
2022/01/31 12:50:53;;;;;;;28.67;15.90;;;4.80;87.20;;;;;;4975999;28;20019;-76
2022/01/31 12:56:10;;;;;;;24.53;16.27;;;4.90;87.20;;;;;;4974746;28;20523;-75
2022/01/31 12:58:37;;;;;;;27.43;15.73;;;4.90;87.60;;;;;;4972922;28;20027;-76
2022/01/31 13:01:20;;;;;;;35.17;23.37;;;4.90;87.90;;;;;;4972708;28;20476;-78
2022/01/31 13:03:49;;;;;;;39.38;25.13;;;5.00;88.30;;;;;;4974697;28;20519;-76
2022/01/31 13:06:32;;;;;;;40.83;24.97;;;5.00;87.60;;;;;;4975415;28;20395;-77
2022/01/31 13:09:09;;;;;;;46.50;26.00;;;5.10;88.10;;;;;;4957488;28;20170;-77
2022/01/31 13:11:35;;;;;;;36.20;24.17;;;5.10;88.20;;;;;;4974839;28;20118;-76
2022/01/31 13:14:14;;;;;;;43.67;26.17;;;5.20;88.90;;;;;;4974843;28;20027;-76
2022/01/31 13:17:03;;;;;;;41.00;24.87;;;5.20;89.10;;;;;;4975314;28;20038;-76